createdAt,value
2018-05-13T00:01:03.719Z,16.40
2018-05-13T00:03:31.791Z,16.40
2018-05-13T00:06:00.661Z,16.40
2018-05-13T00:08:28.300Z,16.40
2018-05-13T00:10:55.761Z,16.40
2018-05-13T00:13:23.310Z,16.40
2018-05-13T00:15:53.183Z,16.40
2018-05-13T00:18:20.961Z,16.40
2018-05-13T00:20:48.403Z,16.30
2018-05-13T00:23:15.800Z,16.30
2018-05-13T00:25:43.223Z,16.30
2018-05-13T00:28:10.531Z,16.20
2018-05-13T00:30:37.951Z,16.20
2018-05-13T00:33:05.381Z,16.20
2018-05-13T00:35:34.673Z,16.20
2018-05-13T00:38:02.270Z,16.20
2018-05-13T00:40:29.701Z,16.20
2018-05-13T00:42:57.179Z,16.20
2018-05-13T00:45:25.761Z,16.20
2018-05-13T00:47:55.360Z,16.20
2018-05-13T00:50:23.610Z,16.10
2018-05-13T00:52:51.230Z,16.10
2018-05-13T00:55:19.401Z,16.10
2018-05-13T00:57:46.951Z,16.10
2018-05-13T01:00:14.511Z,16.00
2018-05-13T01:02:42.472Z,16.00
2018-05-13T01:05:10.291Z,16.00
2018-05-13T01:07:38.359Z,16.00
2018-05-13T01:10:05.840Z,15.90
2018-05-13T01:12:34.069Z,15.90
2018-05-13T01:15:03.291Z,15.90
2018-05-13T01:17:30.701Z,15.90
2018-05-13T01:19:58.000Z,15.80
2018-05-13T01:22:26.490Z,15.80
2018-05-13T01:24:54.310Z,15.80
2018-05-13T01:27:24.440Z,15.70
2018-05-13T01:29:51.891Z,15.70
2018-05-13T01:32:19.662Z,15.70
2018-05-13T01:34:47.890Z,15.60
2018-05-13T01:37:15.220Z,15.60
2018-05-13T01:39:43.321Z,15.60
2018-05-13T01:42:13.300Z,15.50
2018-05-13T01:44:41.860Z,15.50
2018-05-13T01:47:10.100Z,15.50
2018-05-13T01:49:38.050Z,15.50
2018-05-13T01:52:05.530Z,15.50
2018-05-13T01:54:33.515Z,15.40
2018-05-13T01:57:04.582Z,15.40
2018-05-13T01:59:31.984Z,15.40
2018-05-13T02:02:01.392Z,15.40
2018-05-13T02:04:28.840Z,15.40
2018-05-13T02:07:00.371Z,15.50
2018-05-13T02:09:27.841Z,15.40
2018-05-13T02:11:57.615Z,15.40
2018-05-13T02:14:25.590Z,15.50
2018-05-13T02:16:56.540Z,15.50
2018-05-13T02:19:23.861Z,15.50
2018-05-13T02:21:52.362Z,15.60
2018-05-13T02:24:20.460Z,15.50
2018-05-13T02:26:48.101Z,15.50
2018-05-13T02:29:16.261Z,15.60
2018-05-13T02:31:43.660Z,15.60
2018-05-13T02:34:11.201Z,15.60
2018-05-13T02:36:38.772Z,15.60
2018-05-13T02:39:07.911Z,15.60
2018-05-13T02:41:35.505Z,15.60
2018-05-13T02:44:02.821Z,15.50
2018-05-13T02:46:30.178Z,15.50
2018-05-13T02:48:57.702Z,15.50
2018-05-13T02:51:25.660Z,15.50
2018-05-13T02:53:53.046Z,15.40
2018-05-13T02:56:21.072Z,15.40
2018-05-13T02:58:48.511Z,15.40
2018-05-13T03:01:16.332Z,15.30
2018-05-13T03:03:43.867Z,15.30
2018-05-13T03:06:11.710Z,15.20
2018-05-13T03:08:39.743Z,15.20
2018-05-13T03:11:07.090Z,15.20
2018-05-13T03:13:34.600Z,15.10
2018-05-13T03:16:02.245Z,15.00
2018-05-13T03:18:29.881Z,15.00
2018-05-13T03:20:57.280Z,15.00
2018-05-13T03:23:24.841Z,14.90
2018-05-13T03:25:52.560Z,14.90
2018-05-13T03:28:24.864Z,14.90
2018-05-13T03:30:52.383Z,15.00
2018-05-13T03:33:20.822Z,14.90
2018-05-13T03:35:48.941Z,14.90
2018-05-13T03:38:16.893Z,14.90
2018-05-13T03:40:46.520Z,14.90
2018-05-13T03:43:14.093Z,14.90
2018-05-13T03:45:41.621Z,14.90
2018-05-13T03:48:09.371Z,14.90
2018-05-13T03:50:37.771Z,15.00
2018-05-13T03:53:05.322Z,15.00
2018-05-13T03:55:32.822Z,15.10
2018-05-13T03:58:02.600Z,15.40
2018-05-13T04:00:32.204Z,15.70
2018-05-13T04:02:59.800Z,16.00
2018-05-13T04:05:30.673Z,16.40
2018-05-13T04:11:42.941Z,17.40
2018-05-13T04:14:28.241Z,17.80
2018-05-13T04:16:56.001Z,18.20
2018-05-13T04:19:23.380Z,18.50
2018-05-13T04:21:52.141Z,18.90
2018-05-13T04:24:20.491Z,19.20
2018-05-13T04:26:48.111Z,19.50
2018-05-13T04:29:15.902Z,19.60
2018-05-13T04:31:44.021Z,20.10
2018-05-13T04:34:11.410Z,20.10
2018-05-13T04:36:41.224Z,20.30
2018-05-13T04:39:09.722Z,20.50
2018-05-13T04:41:38.920Z,20.80
2018-05-13T04:44:08.712Z,21.00
2018-05-13T04:46:38.681Z,21.20
2018-05-13T04:49:06.105Z,21.50
2018-05-13T04:51:35.801Z,21.70
2018-05-13T04:54:04.284Z,21.80
2018-05-13T04:56:31.892Z,22.00
2018-05-13T04:58:59.192Z,22.00
2018-05-13T05:01:26.821Z,22.10
2018-05-13T05:03:54.311Z,22.00
2018-05-13T05:06:21.722Z,22.20
2018-05-13T05:08:49.080Z,22.40
2018-05-13T05:11:17.010Z,22.50
2018-05-13T05:13:47.690Z,22.90
2018-05-13T05:16:15.222Z,22.90
2018-05-13T05:18:43.181Z,23.10
2018-05-13T05:21:10.339Z,23.10
2018-05-13T05:23:37.554Z,23.20
2018-05-13T05:26:05.150Z,23.60
2018-05-13T05:28:32.167Z,23.90
2018-05-13T05:31:02.241Z,24.10
2018-05-13T05:33:30.010Z,24.00
2018-05-13T05:35:57.460Z,23.90
2018-05-13T05:38:24.813Z,23.90
2018-05-13T05:40:52.196Z,24.00
2018-05-13T05:43:20.295Z,23.70
2018-05-13T05:45:47.673Z,23.60
2018-05-13T05:48:15.425Z,23.40
2018-05-13T05:50:42.979Z,23.40
2018-05-13T05:53:10.489Z,23.30
2018-05-13T05:55:38.667Z,23.10
2018-05-13T05:58:06.540Z,22.50
2018-05-13T06:00:34.441Z,22.20
2018-05-13T06:03:02.772Z,21.40
2018-05-13T06:05:31.539Z,21.40
2018-05-13T06:07:59.331Z,20.90
2018-05-13T06:10:27.131Z,20.60
2018-05-13T06:12:54.743Z,20.40
2018-05-13T06:15:22.350Z,20.20
2018-05-13T06:17:50.670Z,19.90
2018-05-13T06:20:18.341Z,19.90
2018-05-13T06:22:45.760Z,19.80
2018-05-13T06:25:13.225Z,19.70
2018-05-13T06:27:41.761Z,19.80
2018-05-13T06:30:09.421Z,19.80
2018-05-13T06:32:36.830Z,19.90
2018-05-13T06:35:04.064Z,20.00
2018-05-13T06:37:31.912Z,20.00
2018-05-13T06:40:00.580Z,20.10
2018-05-13T06:42:27.668Z,20.00
2018-05-13T06:44:55.230Z,20.10
2018-05-13T06:47:23.041Z,20.30
2018-05-13T06:49:50.389Z,20.30
2018-05-13T06:52:18.240Z,20.50
2018-05-13T06:54:45.730Z,20.60
2018-05-13T06:57:12.874Z,20.80
2018-05-13T06:59:40.481Z,21.00
2018-05-13T07:02:08.151Z,21.10
2018-05-13T07:04:35.970Z,21.20
2018-05-13T07:07:04.080Z,21.40
2018-05-13T07:09:31.662Z,21.40
2018-05-13T07:11:59.150Z,21.60
2018-05-13T07:14:27.641Z,22.00
2018-05-13T07:16:56.042Z,22.20
2018-05-13T07:19:24.280Z,22.30
2018-05-13T07:21:52.946Z,22.30
2018-05-13T07:24:20.652Z,22.30
2018-05-13T07:26:48.861Z,22.60
2018-05-13T07:29:16.454Z,22.50
2018-05-13T07:31:43.950Z,22.70
2018-05-13T07:34:12.001Z,22.70
2018-05-13T07:36:40.610Z,22.80
2018-05-13T07:39:08.771Z,22.90
2018-05-13T07:41:37.102Z,23.00
2018-05-13T07:44:04.774Z,23.00
2018-05-13T07:46:32.380Z,23.10
2018-05-13T07:49:01.050Z,23.50
2018-05-13T07:51:28.701Z,23.50
2018-05-13T07:53:56.271Z,23.60
2018-05-13T07:56:23.740Z,23.60
2018-05-13T07:58:52.501Z,23.60
2018-05-13T08:01:20.052Z,23.70
2018-05-13T08:03:47.531Z,23.50
2018-05-13T08:06:15.137Z,23.50
2018-05-13T08:08:42.771Z,23.40
2018-05-13T08:11:11.031Z,23.70
2018-05-13T08:13:38.601Z,23.70
2018-05-13T08:16:06.131Z,23.80
2018-05-13T08:18:34.248Z,24.00
2018-05-13T08:21:01.851Z,24.00
2018-05-13T08:23:29.301Z,24.10
2018-05-13T08:25:56.841Z,24.10
2018-05-13T08:28:24.663Z,24.10
2018-05-13T08:30:53.152Z,24.30
2018-05-13T08:33:20.891Z,24.30
2018-05-13T08:35:48.783Z,24.30
2018-05-13T08:38:17.390Z,24.50
2018-05-13T08:40:45.230Z,24.50
2018-05-13T08:43:13.502Z,24.80
2018-05-13T08:45:41.632Z,24.90
2018-05-13T08:48:09.160Z,24.80
2018-05-13T08:50:36.601Z,24.90
2018-05-13T08:53:04.321Z,24.90
2018-05-13T08:55:31.970Z,24.90
2018-05-13T08:58:00.271Z,25.00
2018-05-13T09:00:27.880Z,24.90
2018-05-13T09:02:55.861Z,25.00
2018-05-13T09:05:23.340Z,25.10
2018-05-13T09:07:51.792Z,25.10
2018-05-13T09:10:19.193Z,25.00
2018-05-13T09:12:46.821Z,25.10
2018-05-13T09:15:29.971Z,25.30
2018-05-13T09:18:06.775Z,25.40
2018-05-13T09:20:35.273Z,25.50
2018-05-13T09:23:02.621Z,25.50
2018-05-13T09:25:30.254Z,25.70
2018-05-13T09:27:57.785Z,25.70
2018-05-13T09:30:26.031Z,25.90
2018-05-13T09:32:55.074Z,25.90
2018-05-13T09:35:22.642Z,25.90
2018-05-13T09:37:50.264Z,26.00
2018-05-13T09:40:17.521Z,26.00
2018-05-13T09:42:44.961Z,26.00
2018-05-13T09:45:12.531Z,26.10
2018-05-13T09:47:40.111Z,26.20
2018-05-13T09:50:09.411Z,26.30
2018-05-13T09:52:36.871Z,26.30
2018-05-13T09:55:06.942Z,26.30
2018-05-13T09:57:37.489Z,26.50
2018-05-13T10:00:05.162Z,26.70
2018-05-13T10:02:33.041Z,26.60
2018-05-13T10:05:01.712Z,26.50
2018-05-13T10:07:29.242Z,26.40
2018-05-13T10:09:57.032Z,26.40
2018-05-13T10:12:24.622Z,26.50
2018-05-13T10:14:52.122Z,26.80
2018-05-13T10:17:22.253Z,26.90
2018-05-13T10:19:50.046Z,27.10
2018-05-13T10:22:18.291Z,27.20
2018-05-13T10:24:46.055Z,27.20
2018-05-13T10:27:15.197Z,27.30
2018-05-13T10:29:42.651Z,27.40
2018-05-13T10:32:10.131Z,27.50
2018-05-13T10:34:37.140Z,27.60
2018-05-13T10:37:04.481Z,27.70
2018-05-13T10:39:32.013Z,27.80
2018-05-13T10:42:00.801Z,27.80
2018-05-13T10:44:29.131Z,28.00
2018-05-13T10:46:56.711Z,28.00
2018-05-13T10:49:25.641Z,28.10
2018-05-13T10:51:53.031Z,28.10
2018-05-13T10:54:22.731Z,28.10
2018-05-13T10:56:51.956Z,28.00
2018-05-13T10:59:19.863Z,27.90
2018-05-13T11:01:48.420Z,27.90
2018-05-13T11:04:17.764Z,27.80
2018-05-13T11:06:45.650Z,27.90
2018-05-13T11:09:13.221Z,27.90
2018-05-13T11:11:40.556Z,27.90
2018-05-13T11:14:08.202Z,27.90
2018-05-13T11:16:35.780Z,27.80
2018-05-13T11:19:03.542Z,27.90
2018-05-13T11:21:31.412Z,28.00
2018-05-13T11:23:59.073Z,28.00
2018-05-13T11:26:26.670Z,28.00
2018-05-13T11:28:54.952Z,27.90
2018-05-13T11:31:23.461Z,27.90
2018-05-13T11:33:51.087Z,27.90
2018-05-13T11:36:18.542Z,28.00
2018-05-13T11:38:46.760Z,28.20
2018-05-13T11:41:14.280Z,28.20
2018-05-13T11:43:41.732Z,28.30
2018-05-13T11:46:09.190Z,28.30
2018-05-13T11:48:36.532Z,28.30
2018-05-13T11:51:05.152Z,28.40
2018-05-13T11:53:32.681Z,28.30
2018-05-13T11:56:00.972Z,28.40
2018-05-13T11:58:29.350Z,28.40
2018-05-13T12:00:57.701Z,28.40
2018-05-13T12:03:25.332Z,28.30
2018-05-13T12:05:52.854Z,28.30
2018-05-13T12:08:20.521Z,28.30
2018-05-13T12:10:48.550Z,28.20
2018-05-13T12:13:16.000Z,28.20
2018-05-13T12:15:43.781Z,28.40
2018-05-13T12:18:13.032Z,28.70
2018-05-13T12:20:40.331Z,28.70
2018-05-13T12:23:07.941Z,28.90
2018-05-13T12:25:35.262Z,29.10
2018-05-13T12:28:02.641Z,29.10
2018-05-13T12:30:30.061Z,29.00
2018-05-13T12:32:57.621Z,28.90
2018-05-13T12:35:25.200Z,28.90
2018-05-13T12:37:53.511Z,29.00
2018-05-13T12:40:21.361Z,28.90
2018-05-13T12:42:48.801Z,28.90
2018-05-13T12:45:17.270Z,28.80
2018-05-13T12:47:44.852Z,28.40
2018-05-13T12:50:12.865Z,27.90
2018-05-13T12:52:40.503Z,27.50
2018-05-13T12:55:08.562Z,27.20
2018-05-13T12:57:36.038Z,27.00
2018-05-13T13:00:04.595Z,26.80
2018-05-13T13:02:31.834Z,26.70
2018-05-13T13:04:59.417Z,26.50
2018-05-13T13:07:27.569Z,26.30
2018-05-13T13:09:55.771Z,26.30
2018-05-13T13:12:22.987Z,26.30
2018-05-13T13:14:50.611Z,26.20
2018-05-13T13:17:17.793Z,26.00
2018-05-13T13:19:47.181Z,25.90
2018-05-13T13:22:14.851Z,25.90
2018-05-13T13:24:43.717Z,25.80
2018-05-13T13:27:14.710Z,25.80
2018-05-13T13:29:41.733Z,25.80
2018-05-13T13:32:09.672Z,25.80
2018-05-13T13:34:46.546Z,25.70
2018-05-13T13:37:15.010Z,25.70
2018-05-13T13:39:42.561Z,25.60
2018-05-13T13:42:13.020Z,25.60
2018-05-13T13:44:41.610Z,25.60
2018-05-13T13:47:10.542Z,25.60
2018-05-13T13:49:38.685Z,25.50
2018-05-13T13:52:07.973Z,25.50
2018-05-13T13:54:36.094Z,25.60
2018-05-13T13:57:05.012Z,25.60
2018-05-13T13:59:36.570Z,25.60
2018-05-13T14:02:06.133Z,25.60
2018-05-13T14:04:36.956Z,25.60
2018-05-13T14:07:05.555Z,25.70
2018-05-13T14:09:33.895Z,25.80
2018-05-13T14:12:02.855Z,25.80
2018-05-13T14:14:34.576Z,26.00
2018-05-13T14:17:02.873Z,26.00
2018-05-13T14:19:31.270Z,26.10
2018-05-13T14:22:01.748Z,26.10
2018-05-13T14:24:29.174Z,26.10
2018-05-13T14:26:56.446Z,26.20
2018-05-13T14:29:25.870Z,26.20
2018-05-13T14:31:56.017Z,26.20
2018-05-13T14:34:27.509Z,26.30
2018-05-13T14:36:54.784Z,26.30
2018-05-13T14:39:22.609Z,26.20
2018-05-13T14:41:50.775Z,26.10
2018-05-13T14:44:19.701Z,26.10
2018-05-13T14:46:49.631Z,26.10
2018-05-13T14:49:18.185Z,26.00
2018-05-13T14:51:46.041Z,25.90
2018-05-13T14:54:14.680Z,26.00
2018-05-13T14:56:44.602Z,26.00
2018-05-13T14:59:14.060Z,26.10
2018-05-13T15:01:43.026Z,26.20
2018-05-13T15:04:12.988Z,26.30
2018-05-13T15:06:46.321Z,26.30
2018-05-13T15:09:13.752Z,26.40
2018-05-13T15:11:41.229Z,26.50
2018-05-13T15:14:09.041Z,26.60
2018-05-13T15:16:38.179Z,26.90
2018-05-13T15:19:05.752Z,26.80
2018-05-13T15:21:33.330Z,27.00
2018-05-13T15:24:00.780Z,27.10
2018-05-13T15:26:28.342Z,27.10
2018-05-13T15:28:55.796Z,27.10
2018-05-13T15:31:24.111Z,27.20
2018-05-13T15:33:52.430Z,27.30
2018-05-13T15:36:19.851Z,27.20
2018-05-13T15:38:47.371Z,27.30
2018-05-13T15:41:14.930Z,27.40
2018-05-13T15:43:42.761Z,27.30
2018-05-13T15:46:10.349Z,27.10
2018-05-13T15:48:37.821Z,26.90
2018-05-13T15:51:06.361Z,26.80
2018-05-13T15:53:34.050Z,26.70
2018-05-13T15:56:02.431Z,26.70
2018-05-13T15:58:30.771Z,26.70
2018-05-13T16:00:58.270Z,26.70
2018-05-13T16:03:25.920Z,26.60
2018-05-13T16:05:53.621Z,26.40
2018-05-13T16:08:22.171Z,26.30
2018-05-13T16:10:49.711Z,26.30
2018-05-13T16:13:17.311Z,26.20
2018-05-13T16:15:44.769Z,26.10
2018-05-13T16:18:13.105Z,26.30
2018-05-13T16:20:40.682Z,26.20
2018-05-13T16:23:08.720Z,26.30
2018-05-13T16:25:36.240Z,26.30
2018-05-13T16:28:03.891Z,26.20
2018-05-13T16:30:31.242Z,26.30
2018-05-13T16:32:59.110Z,26.30
2018-05-13T16:35:27.313Z,26.00
2018-05-13T16:37:55.140Z,26.00
2018-05-13T16:40:22.691Z,25.90
2018-05-13T16:42:50.331Z,25.90
2018-05-13T16:45:17.880Z,25.90
2018-05-13T16:47:45.423Z,26.00
2018-05-13T16:50:13.101Z,25.90
2018-05-13T16:52:41.072Z,25.90
2018-05-13T16:55:08.624Z,25.90
2018-05-13T16:57:36.211Z,25.90
2018-05-13T17:00:03.900Z,25.80
2018-05-13T17:02:31.983Z,25.90
2018-05-13T17:04:59.580Z,25.90
2018-05-13T17:07:27.300Z,25.80
2018-05-13T17:09:54.981Z,25.80
2018-05-13T17:12:23.110Z,25.80
2018-05-13T17:14:50.460Z,25.80
2018-05-13T17:17:17.975Z,25.90
2018-05-13T17:19:45.461Z,25.70
2018-05-13T17:22:13.073Z,25.40
2018-05-13T17:24:41.391Z,25.00
2018-05-13T17:27:08.911Z,25.00
2018-05-13T17:29:37.072Z,25.10
2018-05-13T17:32:05.772Z,25.20
2018-05-13T17:34:33.310Z,25.20
2018-05-13T17:37:00.842Z,25.30
2018-05-13T17:39:28.730Z,25.30
2018-05-13T17:41:56.290Z,25.30
2018-05-13T17:44:23.811Z,25.30
2018-05-13T17:46:51.351Z,25.30
2018-05-13T17:49:19.971Z,25.10
2018-05-13T17:51:47.420Z,25.10
2018-05-13T17:54:15.022Z,25.10
2018-05-13T17:56:43.449Z,24.70
2018-05-13T17:59:10.970Z,24.70
2018-05-13T18:01:39.241Z,24.30
2018-05-13T18:04:07.230Z,24.20
2018-05-13T18:06:34.891Z,24.20
2018-05-13T18:09:02.626Z,24.00
2018-05-13T18:11:30.841Z,23.70
2018-05-13T18:13:58.290Z,23.70
2018-05-13T18:16:26.172Z,23.50
2018-05-13T18:18:53.650Z,23.40
2018-05-13T18:21:24.090Z,23.30
2018-05-13T18:23:51.741Z,23.20
2018-05-13T18:26:19.382Z,23.10
2018-05-13T18:28:46.950Z,23.10
2018-05-13T18:31:14.471Z,23.00
2018-05-13T18:33:42.125Z,22.90
2018-05-13T18:36:09.601Z,22.80
2018-05-13T18:38:37.112Z,22.70
2018-05-13T18:41:04.681Z,22.60
2018-05-13T18:43:33.030Z,22.50
2018-05-13T18:46:00.501Z,22.40
2018-05-13T18:48:28.010Z,22.40
2018-05-13T18:50:55.570Z,22.40
2018-05-13T18:53:23.130Z,22.30
2018-05-13T18:55:50.720Z,22.20
2018-05-13T18:58:18.299Z,22.20
2018-05-13T19:00:46.750Z,22.10
2018-05-13T19:03:14.221Z,22.10
2018-05-13T19:05:41.731Z,22.10
2018-05-13T19:08:09.250Z,22.00
2018-05-13T19:10:37.202Z,22.00
2018-05-13T19:13:04.801Z,22.00
2018-05-13T19:15:32.351Z,21.90
2018-05-13T19:18:00.652Z,21.80
2018-05-13T19:20:28.281Z,21.80
2018-05-13T19:22:56.020Z,21.80
2018-05-13T19:25:23.431Z,21.70
2018-05-13T19:27:51.391Z,21.70
2018-05-13T19:30:18.830Z,21.60
2018-05-13T19:32:46.570Z,21.60
2018-05-13T19:35:14.230Z,21.50
2018-05-13T19:37:41.721Z,21.50
2018-05-13T19:40:09.192Z,21.50
2018-05-13T19:42:36.543Z,21.50
2018-05-13T19:45:05.936Z,21.40
2018-05-13T19:47:34.232Z,21.40
2018-05-13T19:50:02.032Z,21.40
2018-05-13T19:52:29.652Z,21.40
2018-05-13T19:54:57.172Z,21.40
2018-05-13T19:57:24.453Z,21.40
2018-05-13T19:59:52.920Z,21.30
2018-05-13T20:02:20.351Z,21.30
2018-05-13T20:04:47.851Z,21.30
2018-05-13T20:07:15.124Z,21.30
2018-05-13T20:09:42.813Z,21.30
2018-05-13T20:12:13.990Z,21.30
2018-05-13T20:14:42.232Z,21.20
2018-05-13T20:17:10.490Z,21.20
2018-05-13T20:19:37.852Z,21.10
2018-05-13T20:22:05.800Z,21.10
2018-05-13T20:24:34.162Z,21.10
2018-05-13T20:27:01.841Z,21.00
2018-05-13T20:29:29.311Z,21.00
2018-05-13T20:31:56.612Z,20.90
2018-05-13T20:34:24.160Z,20.90
2018-05-13T20:36:51.490Z,20.90
2018-05-13T20:39:19.632Z,20.90
2018-05-13T20:41:47.010Z,20.90
2018-05-13T20:44:14.464Z,20.90
2018-05-13T20:46:45.024Z,20.90
2018-05-13T20:49:12.341Z,20.90
2018-05-13T20:51:40.672Z,20.80
2018-05-13T20:54:08.161Z,20.80
2018-05-13T20:56:36.691Z,20.80
2018-05-13T20:59:04.172Z,20.80
2018-05-13T21:01:31.822Z,20.70
2018-05-13T21:03:59.201Z,20.70
2018-05-13T21:06:27.184Z,20.70
2018-05-13T21:08:54.751Z,20.70
2018-05-13T21:11:22.212Z,20.70
2018-05-13T21:13:49.522Z,20.70
2018-05-13T21:16:17.201Z,20.60
2018-05-13T21:18:45.301Z,20.60
2018-05-13T21:21:12.651Z,20.60
2018-05-13T21:23:41.011Z,20.60
2018-05-13T21:26:08.390Z,20.50
2018-05-13T21:28:35.701Z,20.50
2018-05-13T21:31:04.831Z,20.50
2018-05-13T21:33:33.492Z,20.50
2018-05-13T21:36:01.921Z,20.50
2018-05-13T21:38:30.112Z,20.40
2018-05-13T21:40:57.621Z,20.40
2018-05-13T21:43:25.380Z,20.40
2018-05-13T21:45:52.651Z,20.30
2018-05-13T21:48:20.021Z,20.30
2018-05-13T21:50:49.121Z,20.20
2018-05-13T21:53:16.689Z,20.20
2018-05-13T21:55:43.981Z,20.10
2018-05-13T21:58:11.480Z,20.10
2018-05-13T22:00:40.032Z,20.10
2018-05-13T22:03:07.529Z,20.00
2018-05-13T22:05:35.966Z,20.00
2018-05-13T22:08:04.620Z,20.00
2018-05-13T22:10:31.991Z,20.00
2018-05-13T22:13:00.480Z,19.90
2018-05-13T22:15:27.979Z,19.90
2018-05-13T22:17:55.269Z,19.90
2018-05-13T22:20:22.810Z,19.80
2018-05-13T22:22:53.799Z,19.80
2018-05-13T22:25:21.971Z,19.80
2018-05-13T22:27:49.300Z,19.70
2018-05-13T22:30:17.335Z,19.70
2018-05-13T22:32:46.833Z,19.60
2018-05-13T22:35:17.371Z,19.60
2018-05-13T22:37:47.410Z,19.60
2018-05-13T22:40:15.791Z,19.60
2018-05-13T22:42:43.902Z,19.60
2018-05-13T22:45:11.380Z,19.60
2018-05-13T22:47:38.876Z,19.50
2018-05-13T22:50:07.000Z,19.50
2018-05-13T22:52:34.650Z,19.50
2018-05-13T22:55:01.980Z,19.50
2018-05-13T22:57:29.449Z,19.50
2018-05-13T22:59:57.068Z,19.50
2018-05-13T23:02:25.352Z,19.40
2018-05-13T23:04:52.880Z,19.40
2018-05-13T23:07:20.250Z,19.40
2018-05-13T23:09:48.855Z,19.40
2018-05-13T23:12:17.742Z,19.40
2018-05-13T23:14:45.072Z,19.30
2018-05-13T23:17:12.502Z,19.30
2018-05-13T23:19:39.880Z,19.30
2018-05-13T23:22:08.592Z,19.30
2018-05-13T23:24:37.080Z,19.30
2018-05-13T23:27:05.040Z,19.30
2018-05-13T23:29:33.400Z,19.30
2018-05-13T23:32:00.811Z,19.30
2018-05-13T23:34:28.085Z,19.30
2018-05-13T23:36:55.270Z,19.30
2018-05-13T23:39:22.642Z,19.30
2018-05-13T23:41:50.020Z,19.30
2018-05-13T23:44:19.050Z,19.30
2018-05-13T23:46:47.871Z,19.30
2018-05-13T23:49:15.311Z,19.30
2018-05-13T23:51:42.631Z,19.30
2018-05-13T23:54:10.141Z,19.30
2018-05-13T23:56:37.521Z,19.30
2018-05-13T23:59:05.012Z,19.30
